Yakima Air Terminal McAllister Field
KYKM : now visible

Airfield :











YOU CAN JOIN US ON...

 
LOGIN :

Register | Disclaimer

   EN    FR    IT 

 









Legend :    VFR   Marginal VFR   IFR   Intensive IFR   Very Intensive IFR
Visi :
Ceiling :
>= 8 km
>= 3000ft
5 to 8 km
1000 to 3000 ft
1500m to 5 km
500 to 1000 ft
800 to 1500m
200 to 500 ft
< 800m
< 200 ft
Symbols :   Thunderstorms  Fog  Heavy snow  Heavy precipitations  Wind > 20 kt







- Airport Elevation : 1099 ft
- IATA code : YKM


KYKM - Yakima Air Terminal McAllister Field

CURRENT METAR :
  • 220053Z 00000KT 10SM CLR 24/06 A2994 RMK AO2 SLP136 T02390056

EXPIRED METARs :
  • 212353Z 18003KT 10SM CLR 24/06 A2995 RMK AO2 SLP140 T02440061 10250 20189 56022
  • 212253Z 09005KT 10SM CLR 25/07 A2997 RMK AO2 SLP147 T02500072

TAF KYKM
Valid from the 22 at 00:00 until the 23 at 00:00 UTC


212335Z 2200/2224 VRB06KT P6SM SKC
FM220300 30007KT P6SM SKC
FM221100 26007KT P6SM SCT200
FM221500 25007KT P6SM VCSH BKN070 BKN100
FM221800 25008KT P6SM -RA BKN050 BKN070
No reported NOTAMs for that airfield.



MET'MAP, your aeronautical weather chart ! - Copyright ORBIFLY December 2007 - Disclaimer

ORBIFLY MET'MAP TEAM :

Programming & Development : Alexandra Zaïnal
Concept & Development : Baudouin d'Aumeries
Co-Development & Prog : Marc-Olivier Méhu
Technical & hardware support : Manuel Goepfert

Contact : metmap@orbifly.com




SOURCES & CREDITS :

   NOAA       Earth
Advisory